sensor_id;sensor_type;location;lat;lon;timestamp;P1;durP1;ratioP1;P2;durP2;ratioP2
42158;SDS011;27822;44.430;10.790;2022-07-29T00:00:34;3.15;;;2.35;;
42158;SDS011;27822;44.430;10.790;2022-07-29T00:03:01;2.22;;;2.00;;
42158;SDS011;27822;44.430;10.790;2022-07-29T00:05:27;3.28;;;2.42;;
42158;SDS011;27822;44.430;10.790;2022-07-29T00:07:53;5.22;;;2.35;;
42158;SDS011;27822;44.430;10.790;2022-07-29T00:10:19;4.63;;;2.63;;
42158;SDS011;27822;44.430;10.790;2022-07-29T00:12:45;6.65;;;3.38;;
42158;SDS011;27822;44.430;10.790;2022-07-29T00:15:10;5.40;;;2.70;;
42158;SDS011;27822;44.430;10.790;2022-07-29T00:17:36;5.53;;;2.53;;
42158;SDS011;27822;44.430;10.790;2022-07-29T00:20:03;3.78;;;2.83;;
42158;SDS011;27822;44.430;10.790;2022-07-29T00:22:29;5.72;;;2.60;;
42158;SDS011;27822;44.430;10.790;2022-07-29T00:24:55;4.85;;;3.08;;
42158;SDS011;27822;44.430;10.790;2022-07-29T00:27:21;4.65;;;2.63;;
42158;SDS011;27822;44.430;10.790;2022-07-29T00:29:46;4.65;;;2.72;;
42158;SDS011;27822;44.430;10.790;2022-07-29T00:32:13;7.82;;;2.75;;
42158;SDS011;27822;44.430;10.790;2022-07-29T00:34:39;3.65;;;2.50;;
42158;SDS011;27822;44.430;10.790;2022-07-29T00:37:23;5.82;;;2.60;;
42158;SDS011;27822;44.430;10.790;2022-07-29T00:39:49;4.40;;;2.55;;
42158;SDS011;27822;44.430;10.790;2022-07-29T00:42:15;3.80;;;2.05;;
42158;SDS011;27822;44.430;10.790;2022-07-29T00:44:42;2.90;;;2.50;;
42158;SDS011;27822;44.430;10.790;2022-07-29T00:47:09;3.33;;;2.40;;
42158;SDS011;27822;44.430;10.790;2022-07-29T00:49:36;4.90;;;2.50;;
42158;SDS011;27822;44.430;10.790;2022-07-29T00:52:04;2.60;;;2.25;;
42158;SDS011;27822;44.430;10.790;2022-07-29T00:54:31;4.70;;;2.47;;
42158;SDS011;27822;44.430;10.790;2022-07-29T00:57:01;6.15;;;2.75;;
42158;SDS011;27822;44.430;10.790;2022-07-29T00:59:34;5.05;;;2.80;;
42158;SDS011;27822;44.430;10.790;2022-07-29T01:02:03;4.63;;;2.70;;
42158;SDS011;27822;44.430;10.790;2022-07-29T01:04:30;3.88;;;2.70;;
42158;SDS011;27822;44.430;10.790;2022-07-29T01:06:57;4.10;;;2.92;;
42158;SDS011;27822;44.430;10.790;2022-07-29T01:09:23;3.47;;;2.53;;
42158;SDS011;27822;44.430;10.790;2022-07-29T01:11:49;5.95;;;2.80;;
42158;SDS011;27822;44.430;10.790;2022-07-29T01:14:15;3.38;;;2.67;;
42158;SDS011;27822;44.430;10.790;2022-07-29T01:16:51;4.00;;;2.90;;
42158;SDS011;27822;44.430;10.790;2022-07-29T01:19:28;4.68;;;3.28;;
42158;SDS011;27822;44.430;10.790;2022-07-29T01:25:32;4.47;;;3.10;;
42158;SDS011;27822;44.430;10.790;2022-07-29T01:30:57;3.67;;;2.80;;
42158;SDS011;27822;44.430;10.790;2022-07-29T01:33:25;10.15;;;3.38;;
42158;SDS011;27822;44.430;10.790;2022-07-29T01:36:13;5.10;;;3.45;;
42158;SDS011;27822;44.430;10.790;2022-07-29T01:38:49;3.33;;;2.80;;
42158;SDS011;27822;44.430;10.790;2022-07-29T01:41:24;3.80;;;3.15;;
42158;SDS011;27822;44.430;10.790;2022-07-29T01:43:54;4.63;;;2.67;;
42158;SDS011;27822;44.430;10.790;2022-07-29T01:46:36;7.70;;;4.28;;
42158;SDS011;27822;44.430;10.790;2022-07-29T01:49:16;4.70;;;4.18;;
42158;SDS011;27822;44.430;10.790;2022-07-29T01:51:50;8.65;;;4.90;;
42158;SDS011;27822;44.430;10.790;2022-07-29T01:54:22;6.45;;;5.28;;
42158;SDS011;27822;44.430;10.790;2022-07-29T01:56:51;7.38;;;5.20;;
42158;SDS011;27822;44.430;10.790;2022-07-29T01:59:21;6.57;;;5.75;;
42158;SDS011;27822;44.430;10.790;2022-07-29T02:01:54;9.73;;;6.50;;
42158;SDS011;27822;44.430;10.790;2022-07-29T02:04:23;6.78;;;5.57;;
42158;SDS011;27822;44.430;10.790;2022-07-29T02:06:51;8.15;;;5.68;;
42158;SDS011;27822;44.430;10.790;2022-07-29T02:09:19;9.13;;;7.37;;
42158;SDS011;27822;44.430;10.790;2022-07-29T02:11:48;9.38;;;6.90;;
42158;SDS011;27822;44.430;10.790;2022-07-29T02:14:17;7.95;;;6.20;;
42158;SDS011;27822;44.430;10.790;2022-07-29T02:16:45;7.50;;;6.75;;
42158;SDS011;27822;44.430;10.790;2022-07-29T02:19:16;8.38;;;6.20;;
42158;SDS011;27822;44.430;10.790;2022-07-29T02:24:11;5.65;;;5.00;;
42158;SDS011;27822;44.430;10.790;2022-07-29T02:26:39;6.70;;;4.72;;
42158;SDS011;27822;44.430;10.790;2022-07-29T02:29:08;4.35;;;3.78;;
42158;SDS011;27822;44.430;10.790;2022-07-29T02:31:37;4.72;;;3.90;;
42158;SDS011;27822;44.430;10.790;2022-07-29T02:34:06;8.82;;;4.05;;
42158;SDS011;27822;44.430;10.790;2022-07-29T02:36:34;6.53;;;4.05;;
42158;SDS011;27822;44.430;10.790;2022-07-29T02:39:02;5.72;;;4.22;;
42158;SDS011;27822;44.430;10.790;2022-07-29T02:41:37;5.80;;;4.20;;
42158;SDS011;27822;44.430;10.790;2022-07-29T02:44:09;6.47;;;4.43;;
42158;SDS011;27822;44.430;10.790;2022-07-29T02:46:42;6.78;;;4.70;;
42158;SDS011;27822;44.430;10.790;2022-07-29T02:49:25;6.05;;;4.20;;
42158;SDS011;27822;44.430;10.790;2022-07-29T02:52:01;9.07;;;4.65;;
42158;SDS011;27822;44.430;10.790;2022-07-29T02:55:15;6.65;;;4.20;;
42158;SDS011;27822;44.430;10.790;2022-07-29T02:57:33;5.85;;;4.18;;
42158;SDS011;27822;44.430;10.790;2022-07-29T03:00:06;4.38;;;3.80;;
42158;SDS011;27822;44.430;10.790;2022-07-29T03:02:35;3.92;;;3.30;;
42158;SDS011;27822;44.430;10.790;2022-07-29T03:05:04;4.63;;;3.35;;
42158;SDS011;27822;44.430;10.790;2022-07-29T03:07:34;5.53;;;3.92;;
42158;SDS011;27822;44.430;10.790;2022-07-29T03:10:02;5.85;;;3.78;;
42158;SDS011;27822;44.430;10.790;2022-07-29T03:12:29;5.35;;;3.92;;
42158;SDS011;27822;44.430;10.790;2022-07-29T03:14:56;4.80;;;3.70;;
42158;SDS011;27822;44.430;10.790;2022-07-29T03:17:24;3.97;;;3.63;;
42158;SDS011;27822;44.430;10.790;2022-07-29T03:19:50;4.13;;;3.38;;
42158;SDS011;27822;44.430;10.790;2022-07-29T03:22:17;4.82;;;3.75;;
42158;SDS011;27822;44.430;10.790;2022-07-29T03:24:44;6.93;;;3.60;;
42158;SDS011;27822;44.430;10.790;2022-07-29T03:27:10;5.00;;;3.85;;
42158;SDS011;27822;44.430;10.790;2022-07-29T03:29:36;5.15;;;3.42;;
42158;SDS011;27822;44.430;10.790;2022-07-29T03:32:03;8.23;;;3.78;;
42158;SDS011;27822;44.430;10.790;2022-07-29T03:34:30;8.80;;;4.00;;
42158;SDS011;27822;44.430;10.790;2022-07-29T03:36:56;10.93;;;6.15;;
42158;SDS011;27822;44.430;10.790;2022-07-29T03:39:24;8.13;;;4.43;;
42158;SDS011;27822;44.430;10.790;2022-07-29T03:41:55;10.10;;;3.75;;
42158;SDS011;27822;44.430;10.790;2022-07-29T03:44:23;9.43;;;3.95;;
42158;SDS011;27822;44.430;10.790;2022-07-29T03:46:53;7.43;;;3.95;;
42158;SDS011;27822;44.430;10.790;2022-07-29T03:49:24;5.28;;;3.72;;
42158;SDS011;27822;44.430;10.790;2022-07-29T03:51:51;6.50;;;3.60;;
42158;SDS011;27822;44.430;10.790;2022-07-29T03:54:17;6.10;;;3.55;;
42158;SDS011;27822;44.430;10.790;2022-07-29T03:56:45;5.32;;;3.53;;
42158;SDS011;27822;44.430;10.790;2022-07-29T03:59:14;4.90;;;3.58;;
42158;SDS011;27822;44.430;10.790;2022-07-29T04:01:41;5.95;;;3.65;;
42158;SDS011;27822;44.430;10.790;2022-07-29T04:04:08;5.20;;;3.53;;
42158;SDS011;27822;44.430;10.790;2022-07-29T04:06:42;6.15;;;3.70;;
42158;SDS011;27822;44.430;10.790;2022-07-29T04:09:10;4.78;;;3.47;;
42158;SDS011;27822;44.430;10.790;2022-07-29T04:11:38;3.97;;;3.28;;
42158;SDS011;27822;44.430;10.790;2022-07-29T04:14:05;5.75;;;3.28;;
42158;SDS011;27822;44.430;10.790;2022-07-29T04:16:31;4.72;;;3.53;;
42158;SDS011;27822;44.430;10.790;2022-07-29T04:18:58;4.35;;;3.03;;
42158;SDS011;27822;44.430;10.790;2022-07-29T04:21:25;5.78;;;2.97;;
42158;SDS011;27822;44.430;10.790;2022-07-29T04:23:51;3.88;;;3.33;;
42158;SDS011;27822;44.430;10.790;2022-07-29T04:26:17;6.30;;;3.50;;
42158;SDS011;27822;44.430;10.790;2022-07-29T04:28:44;6.75;;;3.65;;
42158;SDS011;27822;44.430;10.790;2022-07-29T04:31:11;5.63;;;3.60;;
42158;SDS011;27822;44.430;10.790;2022-07-29T04:33:38;8.43;;;4.20;;
42158;SDS011;27822;44.430;10.790;2022-07-29T04:36:05;4.15;;;3.30;;
42158;SDS011;27822;44.430;10.790;2022-07-29T04:38:31;10.30;;;3.95;;
42158;SDS011;27822;44.430;10.790;2022-07-29T04:40:57;4.50;;;3.65;;
42158;SDS011;27822;44.430;10.790;2022-07-29T04:43:23;4.20;;;3.47;;
42158;SDS011;27822;44.430;10.790;2022-07-29T04:45:49;6.05;;;3.80;;
42158;SDS011;27822;44.430;10.790;2022-07-29T04:48:15;5.40;;;4.10;;
42158;SDS011;27822;44.430;10.790;2022-07-29T04:50:41;5.47;;;3.42;;
42158;SDS011;27822;44.430;10.790;2022-07-29T04:53:09;8.02;;;3.58;;
42158;SDS011;27822;44.430;10.790;2022-07-29T04:55:35;5.45;;;3.72;;
42158;SDS011;27822;44.430;10.790;2022-07-29T04:58:01;6.20;;;3.20;;
42158;SDS011;27822;44.430;10.790;2022-07-29T05:00:28;6.43;;;3.03;;
42158;SDS011;27822;44.430;10.790;2022-07-29T05:03:03;10.32;;;3.20;;
42158;SDS011;27822;44.430;10.790;2022-07-29T05:05:36;6.13;;;3.20;;
42158;SDS011;27822;44.430;10.790;2022-07-29T05:08:03;6.78;;;3.17;;
42158;SDS011;27822;44.430;10.790;2022-07-29T05:10:30;5.35;;;2.67;;
42158;SDS011;27822;44.430;10.790;2022-07-29T05:12:56;6.60;;;2.92;;
42158;SDS011;27822;44.430;10.790;2022-07-29T05:15:23;11.63;;;2.97;;
42158;SDS011;27822;44.430;10.790;2022-07-29T05:17:50;5.10;;;2.53;;
42158;SDS011;27822;44.430;10.790;2022-07-29T05:20:16;6.82;;;2.65;;
42158;SDS011;27822;44.430;10.790;2022-07-29T05:22:43;6.22;;;2.58;;
42158;SDS011;27822;44.430;10.790;2022-07-29T05:25:09;3.67;;;2.60;;
42158;SDS011;27822;44.430;10.790;2022-07-29T05:27:35;5.03;;;2.13;;
42158;SDS011;27822;44.430;10.790;2022-07-29T05:30:02;4.18;;;2.40;;
42158;SDS011;27822;44.430;10.790;2022-07-29T05:32:28;4.07;;;2.33;;
42158;SDS011;27822;44.430;10.790;2022-07-29T05:34:54;3.10;;;2.58;;
42158;SDS011;27822;44.430;10.790;2022-07-29T05:37:19;2.92;;;2.00;;
42158;SDS011;27822;44.430;10.790;2022-07-29T05:39:45;5.38;;;2.50;;
42158;SDS011;27822;44.430;10.790;2022-07-29T05:42:11;4.95;;;2.22;;
42158;SDS011;27822;44.430;10.790;2022-07-29T05:44:37;5.82;;;2.60;;
42158;SDS011;27822;44.430;10.790;2022-07-29T05:47:04;5.28;;;2.60;;
42158;SDS011;27822;44.430;10.790;2022-07-29T05:49:30;4.90;;;2.90;;
42158;SDS011;27822;44.430;10.790;2022-07-29T05:51:56;4.47;;;3.08;;
42158;SDS011;27822;44.430;10.790;2022-07-29T05:54:21;5.63;;;3.00;;
42158;SDS011;27822;44.430;10.790;2022-07-29T05:56:47;4.13;;;3.10;;
42158;SDS011;27822;44.430;10.790;2022-07-29T05:59:13;4.80;;;3.47;;
42158;SDS011;27822;44.430;10.790;2022-07-29T06:01:39;7.72;;;3.30;;
42158;SDS011;27822;44.430;10.790;2022-07-29T06:04:07;4.07;;;3.13;;
42158;SDS011;27822;44.430;10.790;2022-07-29T06:06:34;3.65;;;3.28;;
42158;SDS011;27822;44.430;10.790;2022-07-29T06:09:00;5.70;;;3.22;;
42158;SDS011;27822;44.430;10.790;2022-07-29T06:11:26;5.68;;;3.20;;
42158;SDS011;27822;44.430;10.790;2022-07-29T06:13:52;5.47;;;3.47;;
42158;SDS011;27822;44.430;10.790;2022-07-29T06:16:18;8.02;;;3.25;;
42158;SDS011;27822;44.430;10.790;2022-07-29T06:18:44;8.23;;;3.90;;
42158;SDS011;27822;44.430;10.790;2022-07-29T06:21:09;4.78;;;3.88;;
42158;SDS011;27822;44.430;10.790;2022-07-29T06:23:38;4.07;;;3.55;;
42158;SDS011;27822;44.430;10.790;2022-07-29T06:28:31;6.97;;;4.30;;
42158;SDS011;27822;44.430;10.790;2022-07-29T06:30:57;7.70;;;5.47;;
42158;SDS011;27822;44.430;10.790;2022-07-29T06:33:23;10.57;;;4.82;;
42158;SDS011;27822;44.430;10.790;2022-07-29T06:35:49;6.40;;;4.82;;
42158;SDS011;27822;44.430;10.790;2022-07-29T06:38:15;5.97;;;4.55;;
42158;SDS011;27822;44.430;10.790;2022-07-29T06:40:44;7.50;;;4.40;;
42158;SDS011;27822;44.430;10.790;2022-07-29T06:43:30;5.72;;;4.45;;
42158;SDS011;27822;44.430;10.790;2022-07-29T06:46:08;8.23;;;4.93;;
42158;SDS011;27822;44.430;10.790;2022-07-29T06:48:42;5.57;;;4.55;;
42158;SDS011;27822;44.430;10.790;2022-07-29T06:51:09;7.30;;;4.65;;
42158;SDS011;27822;44.430;10.790;2022-07-29T06:53:36;7.95;;;4.35;;
42158;SDS011;27822;44.430;10.790;2022-07-29T06:56:03;6.95;;;4.22;;
42158;SDS011;27822;44.430;10.790;2022-07-29T06:58:30;5.03;;;4.13;;
42158;SDS011;27822;44.430;10.790;2022-07-29T07:00:56;8.98;;;5.22;;
42158;SDS011;27822;44.430;10.790;2022-07-29T07:03:23;6.47;;;4.72;;
42158;SDS011;27822;44.430;10.790;2022-07-29T07:05:51;6.45;;;4.20;;
42158;SDS011;27822;44.430;10.790;2022-07-29T07:08:18;5.72;;;4.82;;
42158;SDS011;27822;44.430;10.790;2022-07-29T07:10:46;7.10;;;4.63;;
42158;SDS011;27822;44.430;10.790;2022-07-29T07:13:13;7.22;;;4.47;;
42158;SDS011;27822;44.430;10.790;2022-07-29T07:15:46;5.67;;;3.90;;
42158;SDS011;27822;44.430;10.790;2022-07-29T07:18:16;8.38;;;4.53;;
42158;SDS011;27822;44.430;10.790;2022-07-29T07:22:58;13.25;;;5.18;;
42158;SDS011;27822;44.430;10.790;2022-07-29T07:25:25;5.32;;;4.03;;
42158;SDS011;27822;44.430;10.790;2022-07-29T07:27:54;6.22;;;3.60;;
42158;SDS011;27822;44.430;10.790;2022-07-29T07:30:20;5.78;;;4.00;;
42158;SDS011;27822;44.430;10.790;2022-07-29T07:32:47;7.75;;;4.35;;
42158;SDS011;27822;44.430;10.790;2022-07-29T07:35:13;10.00;;;4.47;;
42158;SDS011;27822;44.430;10.790;2022-07-29T07:37:39;6.55;;;4.07;;
42158;SDS011;27822;44.430;10.790;2022-07-29T07:40:08;5.82;;;4.80;;
42158;SDS011;27822;44.430;10.790;2022-07-29T07:42:36;7.63;;;4.77;;
42158;SDS011;27822;44.430;10.790;2022-07-29T07:45:03;6.85;;;5.53;;
42158;SDS011;27822;44.430;10.790;2022-07-29T07:47:30;6.22;;;4.78;;
42158;SDS011;27822;44.430;10.790;2022-07-29T07:49:55;5.68;;;4.53;;
42158;SDS011;27822;44.430;10.790;2022-07-29T07:52:21;8.02;;;6.10;;
42158;SDS011;27822;44.430;10.790;2022-07-29T07:54:47;6.10;;;4.18;;
42158;SDS011;27822;44.430;10.790;2022-07-29T07:57:14;6.07;;;4.60;;
42158;SDS011;27822;44.430;10.790;2022-07-29T07:59:40;8.75;;;5.50;;
42158;SDS011;27822;44.430;10.790;2022-07-29T08:02:08;5.80;;;5.20;;
42158;SDS011;27822;44.430;10.790;2022-07-29T08:04:35;6.70;;;5.13;;
42158;SDS011;27822;44.430;10.790;2022-07-29T08:07:05;5.35;;;4.85;;
42158;SDS011;27822;44.430;10.790;2022-07-29T08:09:35;8.98;;;5.60;;
42158;SDS011;27822;44.430;10.790;2022-07-29T08:12:01;6.07;;;5.32;;
42158;SDS011;27822;44.430;10.790;2022-07-29T08:14:29;6.45;;;5.60;;
42158;SDS011;27822;44.430;10.790;2022-07-29T08:16:56;6.93;;;5.22;;
42158;SDS011;27822;44.430;10.790;2022-07-29T08:19:23;14.18;;;5.45;;
42158;SDS011;27822;44.430;10.790;2022-07-29T08:21:50;9.68;;;4.53;;
42158;SDS011;27822;44.430;10.790;2022-07-29T08:24:18;9.05;;;5.25;;
42158;SDS011;27822;44.430;10.790;2022-07-29T08:27:03;7.03;;;5.00;;
42158;SDS011;27822;44.430;10.790;2022-07-29T08:29:30;10.10;;;4.53;;
42158;SDS011;27822;44.430;10.790;2022-07-29T08:31:56;5.63;;;4.50;;
42158;SDS011;27822;44.430;10.790;2022-07-29T08:34:21;9.93;;;5.07;;
42158;SDS011;27822;44.430;10.790;2022-07-29T08:36:47;7.55;;;4.57;;
42158;SDS011;27822;44.430;10.790;2022-07-29T08:39:13;11.50;;;4.85;;
42158;SDS011;27822;44.430;10.790;2022-07-29T08:41:39;7.35;;;4.85;;
42158;SDS011;27822;44.430;10.790;2022-07-29T08:44:05;6.28;;;4.68;;
42158;SDS011;27822;44.430;10.790;2022-07-29T08:46:30;9.30;;;4.85;;
42158;SDS011;27822;44.430;10.790;2022-07-29T08:56:15;10.20;;;5.75;;
42158;SDS011;27822;44.430;10.790;2022-07-29T08:58:52;11.98;;;4.90;;
42158;SDS011;27822;44.430;10.790;2022-07-29T09:01:26;9.57;;;4.93;;
42158;SDS011;27822;44.430;10.790;2022-07-29T09:03:55;10.65;;;5.00;;
42158;SDS011;27822;44.430;10.790;2022-07-29T09:06:28;6.47;;;4.78;;
42158;SDS011;27822;44.430;10.790;2022-07-29T09:08:58;6.53;;;4.70;;
42158;SDS011;27822;44.430;10.790;2022-07-29T09:11:25;9.43;;;5.20;;
42158;SDS011;27822;44.430;10.790;2022-07-29T09:13:51;6.40;;;4.75;;
42158;SDS011;27822;44.430;10.790;2022-07-29T09:16:17;6.60;;;5.05;;
42158;SDS011;27822;44.430;10.790;2022-07-29T09:18:43;7.93;;;5.68;;
42158;SDS011;27822;44.430;10.790;2022-07-29T09:21:14;10.05;;;5.22;;
42158;SDS011;27822;44.430;10.790;2022-07-29T09:26:29;11.00;;;5.40;;
42158;SDS011;27822;44.430;10.790;2022-07-29T09:28:57;6.10;;;4.57;;
42158;SDS011;27822;44.430;10.790;2022-07-29T09:31:34;8.30;;;5.15;;
42158;SDS011;27822;44.430;10.790;2022-07-29T09:34:03;8.33;;;5.47;;
42158;SDS011;27822;44.430;10.790;2022-07-29T09:36:33;11.55;;;5.55;;
42158;SDS011;27822;44.430;10.790;2022-07-29T09:39:08;10.27;;;5.67;;
42158;SDS011;27822;44.430;10.790;2022-07-29T09:44:18;8.35;;;4.80;;
42158;SDS011;27822;44.430;10.790;2022-07-29T09:46:58;8.63;;;5.40;;
42158;SDS011;27822;44.430;10.790;2022-07-29T09:49:35;16.17;;;5.20;;
42158;SDS011;27822;44.430;10.790;2022-07-29T09:52:25;7.55;;;5.18;;
42158;SDS011;27822;44.430;10.790;2022-07-29T09:54:52;7.28;;;4.80;;
42158;SDS011;27822;44.430;10.790;2022-07-29T09:57:30;12.65;;;4.88;;
42158;SDS011;27822;44.430;10.790;2022-07-29T10:00:00;11.20;;;4.68;;
42158;SDS011;27822;44.430;10.790;2022-07-29T10:02:33;9.32;;;5.38;;
42158;SDS011;27822;44.430;10.790;2022-07-29T10:07:50;11.02;;;5.50;;
42158;SDS011;27822;44.430;10.790;2022-07-29T10:10:24;9.93;;;5.75;;
42158;SDS011;27822;44.430;10.790;2022-07-29T10:12:55;9.98;;;5.50;;
42158;SDS011;27822;44.430;10.790;2022-07-29T10:15:23;12.82;;;6.55;;
42158;SDS011;27822;44.430;10.790;2022-07-29T10:17:50;10.73;;;7.60;;
42158;SDS011;27822;44.430;10.790;2022-07-29T10:20:17;8.82;;;6.35;;
42158;SDS011;27822;44.430;10.790;2022-07-29T10:22:43;8.25;;;5.78;;
42158;SDS011;27822;44.430;10.790;2022-07-29T10:25:09;13.35;;;7.07;;
42158;SDS011;27822;44.430;10.790;2022-07-29T10:27:36;7.55;;;6.38;;
42158;SDS011;27822;44.430;10.790;2022-07-29T10:30:03;11.00;;;5.28;;
42158;SDS011;27822;44.430;10.790;2022-07-29T10:32:33;9.40;;;6.35;;
42158;SDS011;27822;44.430;10.790;2022-07-29T10:35:21;8.93;;;6.80;;
42158;SDS011;27822;44.430;10.790;2022-07-29T10:44:02;11.00;;;6.20;;
42158;SDS011;27822;44.430;10.790;2022-07-29T10:46:38;10.75;;;5.43;;
42158;SDS011;27822;44.430;10.790;2022-07-29T10:54:18;7.13;;;5.60;;
42158;SDS011;27822;44.430;10.790;2022-07-29T10:59:46;8.10;;;5.38;;
42158;SDS011;27822;44.430;10.790;2022-07-29T11:04:59;6.38;;;5.00;;
42158;SDS011;27822;44.430;10.790;2022-07-29T11:07:25;8.15;;;6.00;;
42158;SDS011;27822;44.430;10.790;2022-07-29T11:15:03;6.25;;;4.75;;
42158;SDS011;27822;44.430;10.790;2022-07-29T11:20:41;9.38;;;4.35;;
42158;SDS011;27822;44.430;10.790;2022-07-29T11:34:20;5.85;;;4.60;;
42158;SDS011;27822;44.430;10.790;2022-07-29T11:39:35;11.00;;;5.63;;
42158;SDS011;27822;44.430;10.790;2022-07-29T11:47:25;9.02;;;4.03;;
42158;SDS011;27822;44.430;10.790;2022-07-29T11:49:53;8.07;;;4.22;;
42158;SDS011;27822;44.430;10.790;2022-07-29T11:54:47;5.70;;;4.93;;
42158;SDS011;27822;44.430;10.790;2022-07-29T11:57:18;7.95;;;4.40;;
42158;SDS011;27822;44.430;10.790;2022-07-29T11:59:45;7.63;;;4.80;;
42158;SDS011;27822;44.430;10.790;2022-07-29T12:02:12;7.78;;;4.05;;
42158;SDS011;27822;44.430;10.790;2022-07-29T12:04:49;9.23;;;4.57;;
42158;SDS011;27822;44.430;10.790;2022-07-29T12:07:15;6.70;;;4.28;;
42158;SDS011;27822;44.430;10.790;2022-07-29T12:09:50;7.95;;;3.88;;
42158;SDS011;27822;44.430;10.790;2022-07-29T12:12:17;6.43;;;4.22;;
42158;SDS011;27822;44.430;10.790;2022-07-29T12:14:43;5.75;;;4.10;;
42158;SDS011;27822;44.430;10.790;2022-07-29T12:19:52;8.55;;;4.53;;
42158;SDS011;27822;44.430;10.790;2022-07-29T12:22:27;7.18;;;4.53;;
42158;SDS011;27822;44.430;10.790;2022-07-29T12:27:34;7.20;;;4.82;;
42158;SDS011;27822;44.430;10.790;2022-07-29T12:30:02;6.47;;;4.30;;
42158;SDS011;27822;44.430;10.790;2022-07-29T12:32:33;5.53;;;4.90;;
42158;SDS011;27822;44.430;10.790;2022-07-29T12:35:04;7.20;;;4.28;;
42158;SDS011;27822;44.430;10.790;2022-07-29T12:37:39;8.60;;;4.65;;
42158;SDS011;27822;44.430;10.790;2022-07-29T12:40:07;7.47;;;4.43;;
42158;SDS011;27822;44.430;10.790;2022-07-29T12:42:35;6.27;;;3.90;;
42158;SDS011;27822;44.430;10.790;2022-07-29T12:45:02;10.77;;;4.22;;
42158;SDS011;27822;44.430;10.790;2022-07-29T12:47:29;11.30;;;4.55;;
42158;SDS011;27822;44.430;10.790;2022-07-29T12:50:11;8.10;;;4.35;;
42158;SDS011;27822;44.430;10.790;2022-07-29T12:52:40;5.05;;;3.90;;
42158;SDS011;27822;44.430;10.790;2022-07-29T12:55:06;6.18;;;3.92;;
42158;SDS011;27822;44.430;10.790;2022-07-29T12:57:32;8.38;;;4.85;;
42158;SDS011;27822;44.430;10.790;2022-07-29T13:00:13;7.03;;;4.82;;
42158;SDS011;27822;44.430;10.790;2022-07-29T13:02:40;7.28;;;4.72;;
42158;SDS011;27822;44.430;10.790;2022-07-29T13:05:07;11.07;;;4.25;;
42158;SDS011;27822;44.430;10.790;2022-07-29T13:07:37;5.43;;;4.20;;
42158;SDS011;27822;44.430;10.790;2022-07-29T13:12:54;5.28;;;3.92;;
42158;SDS011;27822;44.430;10.790;2022-07-29T13:15:28;5.30;;;4.20;;
42158;SDS011;27822;44.430;10.790;2022-07-29T13:17:54;8.43;;;4.25;;
42158;SDS011;27822;44.430;10.790;2022-07-29T13:20:23;6.43;;;4.22;;
42158;SDS011;27822;44.430;10.790;2022-07-29T13:22:53;6.03;;;4.80;;
42158;SDS011;27822;44.430;10.790;2022-07-29T13:25:26;6.28;;;3.80;;
42158;SDS011;27822;44.430;10.790;2022-07-29T13:27:54;9.10;;;3.72;;
42158;SDS011;27822;44.430;10.790;2022-07-29T13:30:21;6.13;;;3.42;;
42158;SDS011;27822;44.430;10.790;2022-07-29T13:32:48;5.13;;;3.85;;
42158;SDS011;27822;44.430;10.790;2022-07-29T13:35:15;8.90;;;4.07;;
42158;SDS011;27822;44.430;10.790;2022-07-29T13:37:42;9.27;;;4.10;;
42158;SDS011;27822;44.430;10.790;2022-07-29T13:40:08;6.00;;;3.80;;
42158;SDS011;27822;44.430;10.790;2022-07-29T13:42:35;14.70;;;4.60;;
42158;SDS011;27822;44.430;10.790;2022-07-29T13:45:01;15.93;;;5.40;;
42158;SDS011;27822;44.430;10.790;2022-07-29T13:47:28;19.65;;;6.32;;
42158;SDS011;27822;44.430;10.790;2022-07-29T13:49:57;16.17;;;6.57;;
42158;SDS011;27822;44.430;10.790;2022-07-29T13:52:24;13.20;;;5.82;;
42158;SDS011;27822;44.430;10.790;2022-07-29T13:54:50;11.10;;;6.25;;
42158;SDS011;27822;44.430;10.790;2022-07-29T13:57:17;6.65;;;4.95;;
42158;SDS011;27822;44.430;10.790;2022-07-29T13:59:47;8.32;;;5.13;;
42158;SDS011;27822;44.430;10.790;2022-07-29T14:02:13;7.97;;;6.10;;
42158;SDS011;27822;44.430;10.790;2022-07-29T14:04:39;9.50;;;5.30;;
42158;SDS011;27822;44.430;10.790;2022-07-29T14:07:05;11.70;;;5.45;;
42158;SDS011;27822;44.430;10.790;2022-07-29T14:09:31;10.25;;;6.45;;
42158;SDS011;27822;44.430;10.790;2022-07-29T14:14:27;19.98;;;5.75;;
42158;SDS011;27822;44.430;10.790;2022-07-29T14:16:54;11.27;;;6.00;;
42158;SDS011;27822;44.430;10.790;2022-07-29T14:19:20;12.55;;;5.45;;
42158;SDS011;27822;44.430;10.790;2022-07-29T14:21:46;11.82;;;6.13;;
42158;SDS011;27822;44.430;10.790;2022-07-29T14:24:12;13.10;;;5.80;;
42158;SDS011;27822;44.430;10.790;2022-07-29T14:26:37;11.60;;;6.22;;
42158;SDS011;27822;44.430;10.790;2022-07-29T14:29:03;15.68;;;5.72;;
42158;SDS011;27822;44.430;10.790;2022-07-29T14:31:29;9.30;;;5.57;;
42158;SDS011;27822;44.430;10.790;2022-07-29T14:33:55;10.85;;;6.03;;
42158;SDS011;27822;44.430;10.790;2022-07-29T14:36:21;6.70;;;4.78;;
42158;SDS011;27822;44.430;10.790;2022-07-29T14:38:50;7.43;;;5.50;;
42158;SDS011;27822;44.430;10.790;2022-07-29T14:41:16;7.85;;;5.63;;
42158;SDS011;27822;44.430;10.790;2022-07-29T14:43:42;7.72;;;5.93;;
42158;SDS011;27822;44.430;10.790;2022-07-29T14:46:08;10.13;;;7.03;;
42158;SDS011;27822;44.430;10.790;2022-07-29T14:48:34;7.15;;;6.07;;
42158;SDS011;27822;44.430;10.790;2022-07-29T14:51:00;9.75;;;6.18;;
42158;SDS011;27822;44.430;10.790;2022-07-29T14:53:25;7.53;;;4.85;;
42158;SDS011;27822;44.430;10.790;2022-07-29T14:55:54;8.48;;;4.70;;
42158;SDS011;27822;44.430;10.790;2022-07-29T14:58:20;9.80;;;4.43;;
42158;SDS011;27822;44.430;10.790;2022-07-29T15:00:47;6.32;;;4.80;;
42158;SDS011;27822;44.430;10.790;2022-07-29T15:03:14;7.55;;;4.15;;
42158;SDS011;27822;44.430;10.790;2022-07-29T15:05:40;8.38;;;4.68;;
42158;SDS011;27822;44.430;10.790;2022-07-29T15:08:06;5.28;;;4.53;;
42158;SDS011;27822;44.430;10.790;2022-07-29T15:10:33;5.43;;;4.18;;
42158;SDS011;27822;44.430;10.790;2022-07-29T15:13:02;5.65;;;4.47;;
42158;SDS011;27822;44.430;10.790;2022-07-29T15:15:28;9.95;;;5.45;;
42158;SDS011;27822;44.430;10.790;2022-07-29T15:17:54;7.15;;;4.68;;
42158;SDS011;27822;44.430;10.790;2022-07-29T15:20:20;6.57;;;4.97;;
42158;SDS011;27822;44.430;10.790;2022-07-29T15:22:46;6.85;;;5.38;;
42158;SDS011;27822;44.430;10.790;2022-07-29T15:25:12;10.13;;;4.93;;
42158;SDS011;27822;44.430;10.790;2022-07-29T15:27:38;8.18;;;5.70;;
42158;SDS011;27822;44.430;10.790;2022-07-29T15:30:04;8.70;;;5.30;;
42158;SDS011;27822;44.430;10.790;2022-07-29T15:32:30;8.95;;;5.25;;
42158;SDS011;27822;44.430;10.790;2022-07-29T15:34:56;7.65;;;4.40;;
42158;SDS011;27822;44.430;10.790;2022-07-29T15:37:22;7.28;;;3.90;;
42158;SDS011;27822;44.430;10.790;2022-07-29T15:39:48;4.63;;;3.85;;
42158;SDS011;27822;44.430;10.790;2022-07-29T15:42:14;5.53;;;3.70;;
42158;SDS011;27822;44.430;10.790;2022-07-29T15:44:40;7.30;;;4.20;;
42158;SDS011;27822;44.430;10.790;2022-07-29T15:47:06;8.05;;;4.50;;
42158;SDS011;27822;44.430;10.790;2022-07-29T15:49:32;5.72;;;4.18;;
42158;SDS011;27822;44.430;10.790;2022-07-29T15:52:00;9.75;;;5.18;;
42158;SDS011;27822;44.430;10.790;2022-07-29T15:54:28;7.72;;;4.93;;
42158;SDS011;27822;44.430;10.790;2022-07-29T15:56:54;7.72;;;5.90;;
42158;SDS011;27822;44.430;10.790;2022-07-29T15:59:21;10.52;;;6.88;;
42158;SDS011;27822;44.430;10.790;2022-07-29T16:01:47;7.60;;;5.45;;
42158;SDS011;27822;44.430;10.790;2022-07-29T16:04:13;7.60;;;4.80;;
42158;SDS011;27822;44.430;10.790;2022-07-29T16:06:39;8.88;;;4.30;;